Time;durP1;ratioP1;P1;durP2;ratioP2;P2;SDS_P1;SDS_P2;PMS_P1;PMS_P2;Temp;Humidity;BMP_temperature;BMP_pressure;BME280_temperature;BME280_humidity;BME280_pressure;Samples;Min_cycle;Max_cycle;Signal;HPM_P1;HPM_P2
2021/01/09 00:00:21;;;;;;;13.38;9.38;;;-1.50;98.00;;;;;;5084320;28;20025;-68
2021/01/09 00:02:48;;;;;;;12.02;7.85;;;-1.50;98.00;;;;;;5085876;28;20306;-69
2021/01/09 00:05:14;;;;;;;16.50;8.23;;;-1.50;98.00;;;;;;5082778;28;20028;-70
2021/01/09 00:07:40;;;;;;;12.73;7.97;;;-1.60;98.00;;;;;;5081481;28;20041;-69
2021/01/09 00:10:08;;;;;;;10.48;7.22;;;-1.60;98.00;;;;;;5082888;28;20432;-70
2021/01/09 00:12:38;;;;;;;11.75;7.85;;;-1.70;98.00;;;;;;5087606;28;20044;-69
2021/01/09 00:15:05;;;;;;;11.13;7.57;;;-1.60;98.00;;;;;;5084857;28;20425;-68
2021/01/09 00:17:31;;;;;;;16.08;9.18;;;-1.70;98.00;;;;;;5081953;28;20099;-69
2021/01/09 00:19:57;;;;;;;13.57;8.90;;;-1.70;98.00;;;;;;5084037;28;20068;-70
2021/01/09 00:22:23;;;;;;;12.77;8.65;;;-1.60;98.00;;;;;;5083573;28;21704;-69
2021/01/09 00:24:49;;;;;;;13.68;8.48;;;-1.60;98.00;;;;;;5083667;28;20393;-68
2021/01/09 00:27:15;;;;;;;12.52;8.40;;;-1.60;98.00;;;;;;5086002;28;20039;-68
2021/01/09 00:29:42;;;;;;;13.25;8.88;;;-1.60;98.00;;;;;;5086060;28;20028;-69
2021/01/09 00:32:08;;;;;;;13.68;7.75;;;-1.70;98.00;;;;;;5084581;28;21580;-68
2021/01/09 00:34:34;;;;;;;12.73;7.55;;;-1.70;98.00;;;;;;5079322;28;20070;-68
2021/01/09 00:37:00;;;;;;;11.50;7.38;;;-1.80;98.00;;;;;;5085692;28;21316;-68
2021/01/09 00:39:28;;;;;;;9.98;7.72;;;-1.80;98.00;;;;;;5088075;28;20028;-67
2021/01/09 00:41:58;;;;;;;12.95;8.75;;;-1.80;98.00;;;;;;5080737;28;20055;-68
2021/01/09 00:44:24;;;;;;;12.15;8.82;;;-1.80;98.00;;;;;;5090102;28;20618;-67
2021/01/09 00:46:56;;;;;;;14.05;10.18;;;-1.80;98.00;;;;;;5091368;28;20054;-71
2021/01/09 00:49:22;;;;;;;13.25;8.73;;;-1.60;98.00;;;;;;5110535;27;20031;-69
2021/01/09 00:51:48;;;;;;;15.30;8.85;;;-1.60;98.00;;;;;;5086247;28;20024;-68
2021/01/09 00:54:16;;;;;;;12.00;7.38;;;-1.70;98.00;;;;;;5089814;28;20027;-68
2021/01/09 00:56:42;;;;;;;13.68;7.35;;;-1.70;98.00;;;;;;5089528;28;20054;-67
2021/01/09 00:59:07;;;;;;;11.10;7.15;;;-1.80;98.00;;;;;;5090896;28;20054;-69
2021/01/09 01:01:34;;;;;;;13.02;8.07;;;-1.90;98.00;;;;;;5089700;28;20044;-68
2021/01/09 01:04:00;;;;;;;12.18;8.35;;;-1.90;98.00;;;;;;5090012;28;20024;-70
2021/01/09 01:06:26;;;;;;;11.25;7.85;;;-1.90;98.00;;;;;;5071115;28;20035;-69
2021/01/09 01:08:52;;;;;;;12.10;7.80;;;-1.90;98.00;;;;;;5086555;28;20309;-68
2021/01/09 01:11:29;;;;;;;10.90;7.25;;;-1.90;98.00;;;;;;5089299;28;20024;-70
2021/01/09 01:13:57;;;;;;;13.35;8.38;;;-1.90;98.00;;;;;;5084287;28;20051;-69
2021/01/09 01:16:24;;;;;;;13.65;8.25;;;-1.90;98.00;;;;;;5088236;28;20457;-70
2021/01/09 01:18:50;;;;;;;15.52;8.50;;;-2.00;98.00;;;;;;5090283;28;20027;-68
2021/01/09 01:21:16;;;;;;;11.05;7.65;;;-1.90;98.00;;;;;;5087258;28;20135;-69
2021/01/09 01:23:42;;;;;;;12.05;7.45;;;-1.90;98.00;;;;;;5089899;28;20111;-68
2021/01/09 01:26:09;;;;;;;13.45;8.32;;;-2.00;98.00;;;;;;5089835;28;20028;-69
2021/01/09 01:28:36;;;;;;;10.95;7.63;;;-2.00;98.00;;;;;;5089547;28;20031;-68
2021/01/09 01:31:02;;;;;;;15.63;8.98;;;-2.00;98.00;;;;;;5088758;28;20111;-68
2021/01/09 01:33:29;;;;;;;12.77;8.60;;;-2.00;98.00;;;;;;5088018;28;20028;-68
2021/01/09 01:35:56;;;;;;;16.65;8.50;;;-2.10;98.00;;;;;;5082520;28;20023;-68
2021/01/09 01:38:24;;;;;;;13.75;7.82;;;-2.10;98.00;;;;;;5081900;28;20024;-68
2021/01/09 01:40:50;;;;;;;11.43;8.55;;;-2.10;98.00;;;;;;5083196;28;20067;-69
2021/01/09 01:43:16;;;;;;;14.05;8.30;;;-2.10;98.00;;;;;;5089181;28;20086;-68
2021/01/09 01:45:43;;;;;;;14.32;8.45;;;-2.20;98.00;;;;;;5089099;28;20030;-69
2021/01/09 01:48:11;;;;;;;12.43;8.35;;;-2.20;98.00;;;;;;5087173;28;20024;-69
2021/01/09 01:50:41;;;;;;;12.38;7.65;;;-2.20;98.00;;;;;;5088997;28;20323;-69
2021/01/09 01:53:07;;;;;;;11.40;7.22;;;-2.30;98.00;;;;;;5083458;28;20024;-68
2021/01/09 01:55:34;;;;;;;11.00;7.78;;;-2.30;98.00;;;;;;5092696;28;20048;-70
2021/01/09 01:57:59;;;;;;;12.23;7.78;;;-2.20;98.00;;;;;;5085123;28;20032;-70
2021/01/09 02:00:27;;;;;;;14.88;8.10;;;-2.10;98.00;;;;;;5092893;28;20040;-69
2021/01/09 02:02:54;;;;;;;10.95;6.72;;;-2.10;98.00;;;;;;5086255;28;20154;-69
2021/01/09 02:05:25;;;;;;;11.75;7.57;;;-2.10;98.00;;;;;;5084794;28;20016;-67
2021/01/09 02:07:59;;;;;;;10.35;6.93;;;-2.10;98.00;;;;;;5080087;28;20066;-69
2021/01/09 02:10:25;;;;;;;10.98;7.50;;;-2.10;98.00;;;;;;5083496;28;20068;-68
2021/01/09 02:13:07;;;;;;;11.15;7.50;;;-2.10;98.00;;;;;;5086239;28;20057;-67
2021/01/09 02:15:34;;;;;;;11.73;7.10;;;-2.10;98.00;;;;;;5085785;28;20024;-67
2021/01/09 02:18:00;;;;;;;12.75;7.60;;;-2.20;98.00;;;;;;5088612;28;20105;-70
2021/01/09 02:20:30;;;;;;;11.63;7.38;;;-2.20;98.00;;;;;;5087551;28;20622;-68
2021/01/09 02:22:56;;;;;;;12.20;7.43;;;-2.20;98.00;;;;;;5085319;28;20056;-68
2021/01/09 02:25:22;;;;;;;10.65;6.88;;;-2.20;98.00;;;;;;5092639;28;20497;-69
2021/01/09 02:27:48;;;;;;;13.93;7.70;;;-2.20;98.00;;;;;;5092311;28;20440;-68
2021/01/09 02:30:15;;;;;;;12.00;7.05;;;-2.20;98.00;;;;;;5092652;28;20020;-68
2021/01/09 02:33:02;;;;;;;10.80;7.63;;;-2.30;98.00;;;;;;5080518;28;20109;-68
2021/01/09 02:35:33;;;;;;;11.40;7.43;;;-2.30;98.00;;;;;;5078981;28;20437;-67
2021/01/09 02:37:59;;;;;;;10.38;6.85;;;-2.30;98.00;;;;;;5069713;28;20042;-68
2021/01/09 02:40:24;;;;;;;10.88;7.43;;;-2.30;98.00;;;;;;5065259;28;20502;-68
2021/01/09 02:42:50;;;;;;;11.25;7.25;;;-2.40;98.00;;;;;;5087121;28;20040;-69
2021/01/09 02:45:16;;;;;;;10.25;6.60;;;-2.40;98.00;;;;;;5092561;28;20314;-67
2021/01/09 02:47:42;;;;;;;11.57;7.35;;;-2.40;98.00;;;;;;5091491;28;20031;-69
2021/01/09 02:50:12;;;;;;;10.77;7.43;;;-2.40;98.00;;;;;;5092949;28;20078;-69
2021/01/09 02:52:41;;;;;;;12.80;7.28;;;-2.40;98.00;;;;;;5090690;28;20047;-68
2021/01/09 02:55:08;;;;;;;11.18;6.70;;;-2.40;98.00;;;;;;5091710;28;20085;-68
2021/01/09 02:57:34;;;;;;;10.20;7.05;;;-2.40;98.00;;;;;;5092659;28;20375;-69
2021/01/09 03:00:00;;;;;;;10.80;7.05;;;-2.40;98.00;;;;;;5093278;28;20016;-67
2021/01/09 03:02:26;;;;;;;12.52;7.63;;;-2.50;98.00;;;;;;5090515;28;20107;-67
2021/01/09 03:04:52;;;;;;;11.07;7.03;;;-2.40;98.00;;;;;;5091845;28;20016;-68
2021/01/09 03:07:18;;;;;;;10.70;7.38;;;-2.40;98.00;;;;;;5090137;28;20024;-69
2021/01/09 03:09:43;;;;;;;11.35;7.60;;;-2.40;98.00;;;;;;5092049;28;20153;-68
2021/01/09 03:12:09;;;;;;;10.50;7.20;;;-2.40;98.00;;;;;;5085900;28;20081;-69
2021/01/09 03:14:35;;;;;;;15.95;7.75;;;-2.50;98.00;;;;;;5091017;28;20020;-68
2021/01/09 03:17:01;;;;;;;10.32;6.60;;;-2.50;98.00;;;;;;5092675;28;20048;-69
2021/01/09 03:19:26;;;;;;;10.30;7.18;;;-2.50;98.00;;;;;;5093487;28;20054;-69
2021/01/09 03:21:53;;;;;;;12.70;7.57;;;-2.50;98.00;;;;;;5091035;28;20051;-68
2021/01/09 03:24:18;;;;;;;11.25;7.50;;;-2.50;98.00;;;;;;5090008;28;20032;-68
2021/01/09 03:26:44;;;;;;;12.55;7.80;;;-2.50;98.00;;;;;;5091935;28;20081;-69
2021/01/09 03:29:10;;;;;;;12.48;8.40;;;-2.50;98.00;;;;;;5092573;28;20147;-68
2021/01/09 03:31:41;;;;;;;47.60;23.65;;;-2.60;98.00;;;;;;5087765;28;20024;-68
2021/01/09 03:34:07;;;;;;;46.08;25.63;;;-2.60;98.00;;;;;;5092224;28;20131;-68
2021/01/09 03:36:33;;;;;;;15.93;10.07;;;-2.60;98.00;;;;;;5089266;28;20115;-68
2021/01/09 03:39:02;;;;;;;12.32;8.13;;;-2.60;98.00;;;;;;5093013;28;20115;-69
2021/01/09 03:41:27;;;;;;;13.32;7.90;;;-2.50;98.00;;;;;;5091105;28;20413;-70
2021/01/09 03:43:53;;;;;;;11.55;6.25;;;-2.50;98.00;;;;;;5090837;28;20027;-70
2021/01/09 03:46:19;;;;;;;11.13;6.88;;;-2.40;98.00;;;;;;5088230;28;20067;-70
2021/01/09 03:48:44;;;;;;;10.70;6.72;;;-2.30;98.00;;;;;;5091951;28;20103;-69
2021/01/09 03:51:10;;;;;;;10.50;6.47;;;-2.30;98.00;;;;;;5092197;28;20107;-69
2021/01/09 03:53:36;;;;;;;10.73;6.82;;;-2.30;98.00;;;;;;5089690;28;20417;-69
2021/01/09 03:56:03;;;;;;;12.68;7.80;;;-2.20;98.00;;;;;;5091011;28;20028;-70
2021/01/09 03:58:29;;;;;;;10.20;7.50;;;-2.20;98.00;;;;;;5090875;28;20032;-70
2021/01/09 04:00:54;;;;;;;12.27;7.60;;;-2.20;98.00;;;;;;5091873;28;20043;-69
2021/01/09 04:03:20;;;;;;;8.93;6.65;;;-2.20;98.00;;;;;;5090831;28;20050;-70
2021/01/09 04:05:46;;;;;;;11.52;7.47;;;-2.30;98.00;;;;;;5090141;28;20103;-70
2021/01/09 04:08:11;;;;;;;12.82;8.23;;;-2.30;98.00;;;;;;5090868;28;20031;-67
2021/01/09 04:10:37;;;;;;;9.13;6.47;;;-2.30;98.00;;;;;;5089779;28;20027;-70
2021/01/09 04:13:02;;;;;;;13.40;7.75;;;-2.30;98.00;;;;;;5093191;28;20035;-67
2021/01/09 04:15:28;;;;;;;11.50;7.30;;;-2.30;98.00;;;;;;5086384;28;20035;-68
2021/01/09 04:17:54;;;;;;;12.25;7.88;;;-2.30;98.00;;;;;;5083895;28;20101;-68
2021/01/09 04:20:19;;;;;;;10.90;7.05;;;-2.40;98.00;;;;;;5089859;28;20142;-69
2021/01/09 04:22:45;;;;;;;11.68;7.75;;;-2.40;98.00;;;;;;5087663;28;20032;-69
2021/01/09 04:25:11;;;;;;;10.23;7.22;;;-2.40;98.00;;;;;;5096300;28;20076;-69
2021/01/09 04:27:37;;;;;;;10.68;7.25;;;-2.40;98.00;;;;;;5090957;28;20324;-69
2021/01/09 04:30:04;;;;;;;11.40;8.05;;;-2.40;98.00;;;;;;5091398;28;20024;-69
2021/01/09 04:32:30;;;;;;;13.02;8.23;;;-2.40;98.00;;;;;;5080743;28;20028;-70
2021/01/09 04:34:57;;;;;;;12.18;7.40;;;-2.40;98.00;;;;;;5065968;28;20028;-69
2021/01/09 04:37:22;;;;;;;13.73;8.10;;;-2.40;98.00;;;;;;5062849;28;20058;-70
2021/01/09 04:39:48;;;;;;;13.15;7.60;;;-2.40;98.00;;;;;;5080033;28;20119;-68
2021/01/09 04:42:14;;;;;;;12.45;7.22;;;-2.40;98.00;;;;;;5089760;28;20425;-69
2021/01/09 04:44:40;;;;;;;10.73;7.38;;;-2.40;98.00;;;;;;5090873;28;20028;-68
2021/01/09 04:47:08;;;;;;;11.55;8.05;;;-2.50;98.00;;;;;;5090118;28;20042;-68
2021/01/09 04:49:33;;;;;;;11.15;7.55;;;-2.40;98.00;;;;;;5090494;28;20020;-68
2021/01/09 04:52:02;;;;;;;14.25;8.45;;;-2.40;98.00;;;;;;5089295;28;20093;-69
2021/01/09 04:54:30;;;;;;;13.52;6.82;;;-2.20;98.00;;;;;;5090965;28;20016;-68
2021/01/09 04:56:56;;;;;;;11.00;7.32;;;-2.20;98.00;;;;;;5089994;28;20092;-68
2021/01/09 04:59:23;;;;;;;13.07;7.93;;;-2.20;98.00;;;;;;5089606;28;20036;-68
2021/01/09 05:01:50;;;;;;;10.70;7.35;;;-2.20;98.00;;;;;;5091547;28;20024;-67
2021/01/09 05:04:17;;;;;;;10.32;6.72;;;-2.20;98.00;;;;;;5089850;28;20024;-68
2021/01/09 05:06:44;;;;;;;10.50;7.57;;;-2.20;98.00;;;;;;5087349;28;20028;-68
2021/01/09 05:09:12;;;;;;;13.98;8.43;;;-2.20;98.00;;;;;;5090382;28;20041;-68
2021/01/09 05:11:40;;;;;;;13.15;7.85;;;-2.30;98.00;;;;;;5089192;28;20444;-68
2021/01/09 05:14:07;;;;;;;11.38;8.02;;;-2.30;98.00;;;;;;5085866;28;20398;-68
2021/01/09 05:16:34;;;;;;;15.35;8.63;;;-2.40;98.00;;;;;;5086451;28;20020;-68
2021/01/09 05:19:01;;;;;;;12.77;8.05;;;-2.40;98.00;;;;;;5091329;28;20024;-67
2021/01/09 05:21:33;;;;;;;11.30;7.85;;;-2.30;98.00;;;;;;5087247;28;20035;-69
2021/01/09 05:24:01;;;;;;;12.07;8.02;;;-2.30;98.00;;;;;;5088563;28;20080;-68
2021/01/09 05:26:27;;;;;;;10.23;7.00;;;-2.30;98.00;;;;;;5091926;28;20055;-70
2021/01/09 05:28:55;;;;;;;14.85;8.15;;;-2.30;98.00;;;;;;5090285;28;20058;-68
2021/01/09 05:31:23;;;;;;;10.82;7.05;;;-2.30;98.00;;;;;;5090492;28;20085;-69
2021/01/09 05:33:50;;;;;;;12.13;8.25;;;-2.30;98.00;;;;;;5110728;28;20042;-68
2021/01/09 05:36:17;;;;;;;10.85;7.63;;;-2.40;98.00;;;;;;5089604;28;20067;-68
2021/01/09 05:38:43;;;;;;;14.63;7.82;;;-2.40;98.00;;;;;;5089310;28;20031;-69
2021/01/09 05:41:11;;;;;;;10.63;7.57;;;-2.40;98.00;;;;;;5088729;28;20032;-68
2021/01/09 05:43:40;;;;;;;12.45;8.35;;;-2.30;98.00;;;;;;5088523;28;20386;-67
2021/01/09 05:46:07;;;;;;;12.15;7.72;;;-2.30;98.00;;;;;;5088778;28;20055;-68
2021/01/09 05:48:34;;;;;;;10.75;7.85;;;-2.30;98.00;;;;;;5089165;28;20040;-68
2021/01/09 05:51:04;;;;;;;11.95;7.50;;;-2.30;98.00;;;;;;5092908;28;20575;-68
2021/01/09 05:53:46;;;;;;;11.95;8.35;;;-2.30;98.00;;;;;;5093210;28;20359;-70
2021/01/09 05:56:14;;;;;;;14.38;8.18;;;-2.40;98.00;;;;;;5092758;28;20039;-68
2021/01/09 05:58:41;;;;;;;11.90;8.23;;;-2.40;98.00;;;;;;5093612;28;20028;-70
2021/01/09 06:01:12;;;;;;;12.35;7.50;;;-2.40;98.00;;;;;;5092676;28;20036;-68
2021/01/09 06:03:51;;;;;;;12.15;8.80;;;-2.30;98.00;;;;;;5092723;28;20032;-68
2021/01/09 06:06:26;;;;;;;12.40;8.10;;;-2.30;98.00;;;;;;5092059;28;20032;-68
2021/01/09 06:09:05;;;;;;;12.13;7.45;;;-2.30;98.00;;;;;;5093783;28;20047;-68
2021/01/09 06:11:41;;;;;;;11.82;7.97;;;-2.30;98.00;;;;;;5094295;28;20050;-69
2021/01/09 06:14:13;;;;;;;9.77;7.00;;;-2.40;98.00;;;;;;5091931;28;20062;-68
2021/01/09 06:16:41;;;;;;;12.07;7.70;;;-2.40;98.00;;;;;;5086853;28;20093;-67
2021/01/09 06:19:08;;;;;;;13.57;8.23;;;-2.40;98.00;;;;;;5118913;27;20032;-68
2021/01/09 06:21:35;;;;;;;12.90;8.05;;;-2.40;98.00;;;;;;5092502;28;20040;-68
2021/01/09 06:24:04;;;;;;;13.57;8.82;;;-2.40;98.00;;;;;;5091462;28;20047;-68
2021/01/09 06:26:30;;;;;;;15.50;8.73;;;-2.40;98.00;;;;;;5093926;28;20412;-68
2021/01/09 06:28:57;;;;;;;13.25;8.88;;;-2.40;98.00;;;;;;5094056;28;20032;-68
2021/01/09 06:31:25;;;;;;;10.82;8.65;;;-2.40;98.00;;;;;;5092026;28;20035;-68
2021/01/09 06:33:53;;;;;;;13.98;9.30;;;-2.40;98.00;;;;;;5088388;28;20059;-69
2021/01/09 06:36:21;;;;;;;12.48;8.25;;;-2.50;98.00;;;;;;5071932;28;20097;-69
2021/01/09 06:38:49;;;;;;;15.25;9.80;;;-2.50;98.00;;;;;;5091555;28;20492;-69
2021/01/09 06:41:18;;;;;;;13.70;9.65;;;-2.40;98.00;;;;;;5065084;28;20159;-70
2021/01/09 06:43:46;;;;;;;13.07;8.85;;;-2.40;98.00;;;;;;5089564;28;20035;-69
2021/01/09 06:46:25;;;;;;;11.98;8.65;;;-2.40;98.00;;;;;;5097214;28;20032;-69
2021/01/09 06:48:52;;;;;;;15.55;9.15;;;-2.40;98.00;;;;;;5092808;28;20107;-69
2021/01/09 06:51:32;;;;;;;18.55;10.45;;;-2.50;98.00;;;;;;5078636;28;20315;-68
2021/01/09 06:54:27;;;;;;;19.45;10.05;;;-2.60;98.00;;;;;;5095714;28;20056;-70
2021/01/09 06:57:04;;;;;;;18.30;11.15;;;-2.60;98.00;;;;;;5090706;28;20027;-70
2021/01/09 06:59:38;;;;;;;17.08;11.40;;;-2.50;98.00;;;;;;5096461;28;20134;-67
2021/01/09 07:02:23;;;;;;;21.15;12.98;;;-2.50;98.00;;;;;;5083831;28;20420;-68
2021/01/09 07:04:48;;;;;;;;;;;-2.40;98.00;;;;;;5092769;28;20298;-68
2021/01/09 07:07:52;;;;;;;16.33;11.20;;;-2.40;98.00;;;;;;5078622;28;19934;-68
2021/01/09 07:10:23;;;;;;;16.00;10.83;;;-2.30;98.00;;;;;;5092640;28;20024;-69
2021/01/09 07:12:53;;;;;;;15.05;10.93;;;-2.30;98.00;;;;;;5092385;28;20353;-69
2021/01/09 07:15:20;;;;;;;20.10;11.02;;;-2.30;98.00;;;;;;5097584;28;20093;-70
2021/01/09 07:17:54;;;;;;;16.42;11.02;;;-2.30;98.00;;;;;;5093294;28;20433;-68
2021/01/09 07:20:23;;;;;;;20.05;13.27;;;-2.40;98.00;;;;;;5089949;28;20103;-68
2021/01/09 07:22:52;;;;;;;19.85;13.35;;;-2.40;98.00;;;;;;5090727;28;20028;-67
2021/01/09 07:25:32;;;;;;;17.17;12.32;;;-2.50;98.00;;;;;;5097224;28;20028;-68
2021/01/09 07:28:00;;;;;;;21.05;14.48;;;-2.60;98.00;;;;;;5096626;28;20024;-68
2021/01/09 07:30:29;;;;;;;23.25;14.45;;;-2.80;98.00;;;;;;5089009;28;20026;-68
2021/01/09 07:32:55;;;;;;;24.55;15.52;;;-3.00;98.00;;;;;;5086778;28;20444;-68
2021/01/09 07:35:30;;;;;;;25.00;17.13;;;-3.10;98.00;;;;;;5081292;28;20105;-67
2021/01/09 07:38:01;;;;;;;29.20;17.65;;;-3.00;98.00;;;;;;5095924;28;20486;-69
2021/01/09 07:40:45;;;;;;;23.58;15.45;;;-3.00;98.00;;;;;;5088845;28;20364;-69
2021/01/09 07:43:32;;;;;;;24.58;15.15;;;-3.20;98.00;;;;;;5095558;28;20332;-68
2021/01/09 07:46:00;;;;;;;32.15;22.45;;;-3.20;98.00;;;;;;5096866;28;20028;-68
2021/01/09 07:48:34;;;;;;;29.90;20.92;;;-3.10;98.00;;;;;;5095269;28;20035;-68
2021/01/09 07:51:00;;;;;;;21.25;15.15;;;-3.10;98.00;;;;;;5096828;28;20019;-68
2021/01/09 07:53:27;;;;;;;25.00;14.27;;;-3.00;98.00;;;;;;5092270;28;20065;-67
2021/01/09 07:55:53;;;;;;;19.23;13.75;;;-3.00;98.00;;;;;;5075831;28;20032;-68
2021/01/09 07:58:45;;;;;;;24.00;14.43;;;-2.90;98.00;;;;;;5085844;28;20086;-68
2021/01/09 08:01:11;;;;;;;19.77;13.10;;;-2.80;98.00;;;;;;5090368;28;20058;-70
2021/01/09 08:03:40;;;;;;;17.85;13.20;;;-2.80;98.00;;;;;;5094680;28;20436;-68
2021/01/09 08:06:06;;;;;;;21.25;13.57;;;-2.70;98.00;;;;;;5086408;28;20081;-67
2021/01/09 08:08:32;;;;;;;24.77;14.02;;;-2.60;98.00;;;;;;5074789;28;20028;-68
2021/01/09 08:11:02;;;;;;;25.95;16.73;;;-2.60;98.00;;;;;;5087887;28;20016;-68
2021/01/09 08:13:28;;;;;;;21.20;13.52;;;-2.50;98.00;;;;;;5076769;28;20024;-68
2021/01/09 08:15:54;;;;;;;21.70;12.35;;;-2.40;98.00;;;;;;5095617;28;20020;-68
2021/01/09 08:18:20;;;;;;;18.67;11.75;;;-2.20;98.00;;;;;;5094256;28;20352;-68
2021/01/09 08:20:49;;;;;;;18.65;11.82;;;-2.00;98.00;;;;;;5094248;28;20108;-68
2021/01/09 08:23:15;;;;;;;14.70;10.52;;;-1.80;98.00;;;;;;5089581;28;20091;-68
2021/01/09 08:25:43;;;;;;;18.88;11.73;;;-1.60;98.00;;;;;;5080601;28;20103;-68
2021/01/09 08:28:09;;;;;;;19.10;13.73;;;-1.40;98.00;;;;;;5094192;28;20024;-68
2021/01/09 08:30:38;;;;;;;20.08;14.07;;;-1.50;98.00;;;;;;5076058;28;20021;-68
2021/01/09 08:33:11;;;;;;;21.08;13.18;;;-1.40;98.00;;;;;;5090957;28;20024;-69
2021/01/09 08:35:39;;;;;;;17.98;12.18;;;-1.30;98.00;;;;;;5095081;28;20047;-67
2021/01/09 08:38:05;;;;;;;17.98;12.90;;;-1.20;98.00;;;;;;5078436;28;20028;-69
2021/01/09 08:40:32;;;;;;;16.23;11.10;;;-1.00;98.00;;;;;;5066583;28;20035;-68
2021/01/09 08:43:00;;;;;;;18.35;11.40;;;-1.00;98.00;;;;;;5064448;28;20082;-69
2021/01/09 08:45:38;;;;;;;15.38;10.55;;;-0.90;98.00;;;;;;5095336;27;20448;-68
2021/01/09 08:48:05;;;;;;;14.52;10.60;;;-0.70;98.00;;;;;;5065024;28;20077;-68
2021/01/09 08:50:31;;;;;;;13.70;9.63;;;-0.40;98.00;;;;;;5071980;28;20360;-68
2021/01/09 08:53:04;;;;;;;17.33;10.35;;;-0.20;98.00;;;;;;5082849;28;20110;-68
2021/01/09 08:55:34;;;;;;;12.60;9.68;;;-0.10;98.00;;;;;;5077696;28;20417;-69
2021/01/09 08:58:00;;;;;;;16.67;11.25;;;0.00;98.00;;;;;;5092635;28;20076;-69
2021/01/09 09:00:28;;;;;;;21.33;14.35;;;0.10;97.80;;;;;;5086573;28;20023;-68
2021/01/09 09:02:55;;;;;;;23.17;14.02;;;0.30;97.70;;;;;;5082017;28;20020;-67
2021/01/09 09:05:29;;;;;;;25.77;15.30;;;0.60;97.10;;;;;;5083416;28;20028;-67
2021/01/09 09:07:57;;;;;;;21.38;12.90;;;0.80;95.70;;;;;;5083868;28;20052;-70
2021/01/09 09:10:24;;;;;;;16.67;10.68;;;1.10;95.30;;;;;;5088662;28;20040;-68
2021/01/09 09:12:51;;;;;;;18.95;12.40;;;1.20;93.90;;;;;;5086837;28;20028;-68
2021/01/09 09:15:32;;;;;;;16.95;12.13;;;1.40;93.70;;;;;;5093193;28;20048;-68
2021/01/09 09:17:57;;;;;;;14.00;9.40;;;1.70;93.00;;;;;;5087585;28;20079;-68
2021/01/09 09:20:24;;;;;;;13.85;9.27;;;1.90;91.00;;;;;;5090997;28;20063;-67
2021/01/09 09:22:52;;;;;;;14.52;8.45;;;1.70;91.00;;;;;;5075916;28;20185;-68
2021/01/09 09:25:24;;;;;;;14.05;8.95;;;1.50;90.80;;;;;;5093712;28;20015;-68
2021/01/09 09:27:50;;;;;;;12.40;7.80;;;1.50;91.80;;;;;;5107674;28;20024;-70
2021/01/09 09:30:18;;;;;;;15.32;9.88;;;1.50;92.00;;;;;;5092724;28;20024;-70
2021/01/09 09:32:46;;;;;;;31.23;18.20;;;1.70;91.30;;;;;;5089067;28;20044;-70
2021/01/09 09:35:29;;;;;;;11.77;7.93;;;1.80;90.70;;;;;;5086701;28;20412;-70
2021/01/09 09:37:59;;;;;;;15.88;8.90;;;2.10;89.30;;;;;;5083968;28;21456;-70
2021/01/09 09:40:30;;;;;;;16.98;10.15;;;2.10;89.30;;;;;;5088364;28;20020;-70
2021/01/09 09:43:17;;;;;;;11.80;7.85;;;2.10;88.50;;;;;;5092718;28;20089;-70
2021/01/09 09:45:56;;;;;;;12.85;8.40;;;2.10;88.80;;;;;;5094741;28;20024;-69
2021/01/09 09:48:40;;;;;;;11.27;7.93;;;2.30;89.00;;;;;;5079231;28;20416;-70
2021/01/09 09:51:06;;;;;;;12.05;7.55;;;2.80;87.90;;;;;;5078046;28;20432;-69
2021/01/09 09:53:35;;;;;;;10.40;6.97;;;3.30;86.80;;;;;;5085710;28;20020;-69
2021/01/09 09:56:17;;;;;;;14.13;9.30;;;3.70;84.50;;;;;;5109534;28;20019;-69
2021/01/09 09:58:43;;;;;;;16.77;12.35;;;3.70;83.90;;;;;;5091430;28;20101;-68
2021/01/09 10:01:21;;;;;;;15.38;10.63;;;3.50;83.90;;;;;;5091373;28;20028;-70
2021/01/09 10:03:49;;;;;;;14.55;9.88;;;3.00;84.10;;;;;;5090274;28;20069;-69
2021/01/09 10:06:15;;;;;;;12.85;7.88;;;2.90;85.90;;;;;;5096942;28;20028;-69
2021/01/09 10:08:41;;;;;;;11.55;7.93;;;2.80;85.30;;;;;;5089780;28;20035;-67
2021/01/09 10:11:08;;;;;;;13.85;8.50;;;2.90;84.90;;;;;;5089208;28;20026;-68
2021/01/09 10:13:34;;;;;;;11.13;7.40;;;3.20;84.70;;;;;;5098219;28;20024;-68
2021/01/09 10:16:00;;;;;;;10.98;7.18;;;3.20;83.00;;;;;;5088912;28;20086;-70
2021/01/09 10:18:28;;;;;;;10.93;7.18;;;2.90;83.20;;;;;;5091003;28;20043;-67
2021/01/09 10:20:56;;;;;;;12.68;7.70;;;2.80;83.20;;;;;;5095611;28;20107;-68
2021/01/09 10:23:21;;;;;;;25.30;16.50;;;3.20;83.40;;;;;;5094121;28;20451;-69
2021/01/09 10:25:47;;;;;;;11.75;6.90;;;3.70;82.60;;;;;;5098332;28;20036;-69
2021/01/09 10:28:13;;;;;;;11.07;6.40;;;4.20;81.50;;;;;;5088034;28;20055;-69
2021/01/09 10:30:39;;;;;;;10.90;6.57;;;4.80;78.50;;;;;;5097907;28;20024;-69
2021/01/09 10:33:05;;;;;;;11.23;6.47;;;4.80;77.90;;;;;;5092418;28;20052;-70
2021/01/09 10:35:31;;;;;;;15.25;9.45;;;5.30;77.90;;;;;;5069898;28;20036;-70
2021/01/09 10:37:57;;;;;;;14.43;9.60;;;6.40;76.00;;;;;;5067971;28;20324;-69
2021/01/09 10:40:22;;;;;;;14.40;9.20;;;7.20;74.80;;;;;;5071522;28;20078;-70
2021/01/09 10:42:48;;;;;;;14.85;8.55;;;7.70;73.90;;;;;;5089436;28;20035;-70
2021/01/09 10:45:14;;;;;;;13.27;8.00;;;8.00;72.10;;;;;;5090007;28;20024;-70
2021/01/09 10:47:40;;;;;;;17.50;8.15;;;8.00;71.80;;;;;;5080451;28;20032;-69
2021/01/09 10:50:06;;;;;;;11.35;7.15;;;8.40;71.30;;;;;;5083421;28;20023;-68
2021/01/09 10:52:35;;;;;;;12.38;7.60;;;8.60;69.90;;;;;;5096113;28;20028;-68
2021/01/09 10:55:03;;;;;;;11.32;7.22;;;8.80;68.30;;;;;;5096774;28;20044;-69
2021/01/09 10:57:29;;;;;;;11.77;7.97;;;8.30;68.20;;;;;;5095650;28;20040;-68
2021/01/09 10:59:54;;;;;;;14.73;8.68;;;7.60;70.30;;;;;;5088312;28;20039;-68
2021/01/09 11:02:20;;;;;;;13.80;9.30;;;7.20;71.80;;;;;;5095848;28;20024;-69
2021/01/09 11:04:46;;;;;;;15.38;10.57;;;7.30;72.70;;;;;;5084830;28;20032;-69
2021/01/09 11:07:12;;;;;;;17.20;11.50;;;6.70;73.40;;;;;;5091269;28;20028;-69
2021/01/09 11:09:37;;;;;;;16.17;10.98;;;5.50;76.70;;;;;;5085942;28;20059;-69
2021/01/09 11:12:03;;;;;;;17.95;11.80;;;5.80;77.70;;;;;;5083939;28;20031;-69
2021/01/09 11:14:29;;;;;;;19.58;12.55;;;6.10;76.30;;;;;;5083784;28;20028;-70
2021/01/09 11:17:01;;;;;;;23.30;14.20;;;5.60;78.10;;;;;;5081003;28;20043;-71
2021/01/09 11:19:27;;;;;;;16.23;12.00;;;5.70;79.10;;;;;;5084845;28;20024;-71
2021/01/09 11:22:00;;;;;;;22.35;14.05;;;6.60;77.70;;;;;;5093611;28;20060;-69
2021/01/09 11:24:30;;;;;;;19.60;14.30;;;7.10;76.30;;;;;;5082047;28;20069;-70
2021/01/09 11:27:00;;;;;;;22.73;14.30;;;7.50;74.60;;;;;;5086364;28;20016;-69
2021/01/09 11:29:26;;;;;;;21.90;13.75;;;7.10;75.30;;;;;;5087576;28;20051;-69
2021/01/09 11:32:03;;;;;;;23.08;14.57;;;7.60;74.90;;;;;;5091490;28;20059;-71
2021/01/09 11:34:29;;;;;;;26.52;16.80;;;7.20;74.30;;;;;;5086264;28;20028;-70
2021/01/09 11:36:56;;;;;;;25.90;14.82;;;5.90;77.00;;;;;;5088122;28;20027;-70
2021/01/09 11:39:21;;;;;;;24.80;15.63;;;4.60;80.70;;;;;;5088474;28;20042;-70
2021/01/09 11:41:47;;;;;;;25.88;16.38;;;3.90;82.80;;;;;;5087439;28;20024;-69
2021/01/09 11:44:17;;;;;;;24.52;15.30;;;3.20;85.80;;;;;;5088023;28;20023;-69
2021/01/09 11:46:46;;;;;;;36.05;16.73;;;2.90;87.50;;;;;;5081953;28;20020;-69
2021/01/09 11:49:11;;;;;;;28.90;18.23;;;2.30;88.60;;;;;;5083335;28;20063;-69
2021/01/09 11:51:37;;;;;;;23.80;15.68;;;1.80;90.80;;;;;;5086825;28;20048;-69
2021/01/09 11:54:03;;;;;;;24.67;16.92;;;1.40;92.30;;;;;;5079837;28;20020;-70
2021/01/09 11:56:28;;;;;;;24.95;17.50;;;1.10;93.60;;;;;;5086888;28;20073;-70
2021/01/09 11:58:57;;;;;;;24.65;17.92;;;0.90;94.90;;;;;;5091820;28;20031;-71
2021/01/09 12:01:23;;;;;;;25.60;18.27;;;0.90;95.10;;;;;;5094691;28;20072;-71
2021/01/09 12:03:51;;;;;;;30.92;19.52;;;0.80;95.50;;;;;;5093150;28;20055;-69
2021/01/09 12:06:17;;;;;;;28.48;19.35;;;0.90;95.60;;;;;;5095584;28;20362;-71
2021/01/09 12:08:44;;;;;;;29.48;19.00;;;0.70;95.80;;;;;;5086208;28;20103;-72
2021/01/09 12:11:10;;;;;;;26.52;18.38;;;0.50;96.30;;;;;;5095767;28;20032;-70
2021/01/09 12:13:37;;;;;;;27.13;17.63;;;0.40;96.80;;;;;;5090146;28;20016;-70
2021/01/09 12:16:04;;;;;;;27.40;17.80;;;0.40;97.10;;;;;;5091755;28;20344;-70
2021/01/09 12:18:32;;;;;;;29.10;18.15;;;0.30;96.90;;;;;;5093788;28;20044;-71
2021/01/09 12:20:58;;;;;;;30.23;20.25;;;0.20;97.20;;;;;;5078635;28;20038;-71
2021/01/09 12:23:24;;;;;;;26.90;18.63;;;0.20;97.20;;;;;;5094474;28;20024;-72
2021/01/09 12:25:49;;;;;;;23.77;15.48;;;0.30;97.10;;;;;;5081646;28;20027;-72
2021/01/09 12:28:15;;;;;;;25.38;16.90;;;0.40;97.00;;;;;;5093115;28;20032;-71
2021/01/09 12:30:40;;;;;;;26.33;16.77;;;0.70;96.20;;;;;;5093583;28;20417;-72
2021/01/09 12:33:07;;;;;;;28.20;16.70;;;0.60;96.00;;;;;;5094324;28;20051;-72
2021/01/09 12:35:33;;;;;;;26.05;17.40;;;0.70;95.70;;;;;;5071361;28;20031;-72
2021/01/09 12:37:58;;;;;;;26.52;17.48;;;0.90;95.60;;;;;;5080983;28;20036;-72
2021/01/09 12:40:24;;;;;;;28.73;18.13;;;1.10;95.00;;;;;;5065532;28;20036;-72